sensor_id;sensor_type;location;lat;lon;timestamp;P1;durP1;ratioP1;P2;durP2;ratioP2
67063;SDS011;58476;48.072;11.970;2023-10-19T00:02:20;7.30;;;5.30;;
67063;SDS011;58476;48.072;11.970;2023-10-19T00:04:45;7.60;;;5.47;;
67063;SDS011;58476;48.072;11.970;2023-10-19T00:07:11;8.20;;;5.60;;
67063;SDS011;58476;48.072;11.970;2023-10-19T00:09:36;8.80;;;5.50;;
67063;SDS011;58476;48.072;11.970;2023-10-19T00:12:02;8.20;;;5.22;;
67063;SDS011;58476;48.072;11.970;2023-10-19T00:14:27;10.15;;;5.53;;
67063;SDS011;58476;48.072;11.970;2023-10-19T00:16:53;7.88;;;5.20;;
67063;SDS011;58476;48.072;11.970;2023-10-19T00:19:18;9.45;;;5.45;;
67063;SDS011;58476;48.072;11.970;2023-10-19T00:21:44;8.10;;;5.60;;
67063;SDS011;58476;48.072;11.970;2023-10-19T00:24:09;8.85;;;5.75;;
67063;SDS011;58476;48.072;11.970;2023-10-19T00:26:34;7.95;;;5.50;;
67063;SDS011;58476;48.072;11.970;2023-10-19T00:29:00;8.35;;;5.50;;
67063;SDS011;58476;48.072;11.970;2023-10-19T00:31:25;9.05;;;5.57;;
67063;SDS011;58476;48.072;11.970;2023-10-19T00:33:51;8.98;;;5.82;;
67063;SDS011;58476;48.072;11.970;2023-10-19T00:36:17;7.55;;;5.25;;
67063;SDS011;58476;48.072;11.970;2023-10-19T00:38:42;12.23;;;6.45;;
67063;SDS011;58476;48.072;11.970;2023-10-19T00:41:09;8.32;;;5.70;;
67063;SDS011;58476;48.072;11.970;2023-10-19T00:43:35;7.90;;;5.60;;
67063;SDS011;58476;48.072;11.970;2023-10-19T00:46:02;7.72;;;5.60;;
67063;SDS011;58476;48.072;11.970;2023-10-19T00:48:30;7.30;;;5.38;;
67063;SDS011;58476;48.072;11.970;2023-10-19T00:50:57;7.60;;;5.22;;
67063;SDS011;58476;48.072;11.970;2023-10-19T00:53:23;8.95;;;5.60;;
67063;SDS011;58476;48.072;11.970;2023-10-19T00:55:49;7.47;;;5.18;;
67063;SDS011;58476;48.072;11.970;2023-10-19T00:58:15;8.43;;;5.30;;
67063;SDS011;58476;48.072;11.970;2023-10-19T01:00:40;9.10;;;5.65;;
67063;SDS011;58476;48.072;11.970;2023-10-19T01:03:05;7.57;;;5.20;;
67063;SDS011;58476;48.072;11.970;2023-10-19T01:05:32;7.80;;;5.57;;
67063;SDS011;58476;48.072;11.970;2023-10-19T01:07:57;8.75;;;5.75;;
67063;SDS011;58476;48.072;11.970;2023-10-19T01:10:23;9.63;;;5.47;;
67063;SDS011;58476;48.072;11.970;2023-10-19T01:12:49;7.75;;;5.18;;
67063;SDS011;58476;48.072;11.970;2023-10-19T01:15:15;7.80;;;5.13;;
67063;SDS011;58476;48.072;11.970;2023-10-19T01:17:43;9.02;;;5.80;;
67063;SDS011;58476;48.072;11.970;2023-10-19T01:20:12;7.20;;;5.30;;
67063;SDS011;58476;48.072;11.970;2023-10-19T01:22:42;8.07;;;5.55;;
67063;SDS011;58476;48.072;11.970;2023-10-19T01:25:11;6.80;;;5.35;;
67063;SDS011;58476;48.072;11.970;2023-10-19T01:27:36;8.25;;;5.85;;
67063;SDS011;58476;48.072;11.970;2023-10-19T01:30:02;7.93;;;5.60;;
67063;SDS011;58476;48.072;11.970;2023-10-19T01:32:28;9.95;;;6.03;;
67063;SDS011;58476;48.072;11.970;2023-10-19T01:34:54;8.80;;;5.97;;
67063;SDS011;58476;48.072;11.970;2023-10-19T01:37:19;7.75;;;5.40;;
67063;SDS011;58476;48.072;11.970;2023-10-19T01:39:45;7.32;;;5.35;;
67063;SDS011;58476;48.072;11.970;2023-10-19T01:42:10;8.40;;;6.05;;
67063;SDS011;58476;48.072;11.970;2023-10-19T01:44:35;11.70;;;5.65;;
67063;SDS011;58476;48.072;11.970;2023-10-19T01:47:01;7.00;;;5.20;;
67063;SDS011;58476;48.072;11.970;2023-10-19T01:49:27;10.10;;;5.78;;
67063;SDS011;58476;48.072;11.970;2023-10-19T01:51:52;9.70;;;5.43;;
67063;SDS011;58476;48.072;11.970;2023-10-19T01:54:17;9.05;;;5.82;;
67063;SDS011;58476;48.072;11.970;2023-10-19T01:56:43;10.52;;;6.25;;
67063;SDS011;58476;48.072;11.970;2023-10-19T01:59:08;9.98;;;5.95;;
67063;SDS011;58476;48.072;11.970;2023-10-19T02:01:34;8.13;;;5.70;;
67063;SDS011;58476;48.072;11.970;2023-10-19T02:04:01;9.63;;;6.28;;
67063;SDS011;58476;48.072;11.970;2023-10-19T02:06:30;9.13;;;5.63;;
67063;SDS011;58476;48.072;11.970;2023-10-19T02:08:59;8.13;;;5.82;;
67063;SDS011;58476;48.072;11.970;2023-10-19T02:11:26;8.27;;;5.53;;
67063;SDS011;58476;48.072;11.970;2023-10-19T02:13:53;8.90;;;5.82;;
67063;SDS011;58476;48.072;11.970;2023-10-19T02:16:21;7.13;;;5.45;;
67063;SDS011;58476;48.072;11.970;2023-10-19T02:18:47;7.75;;;5.68;;
67063;SDS011;58476;48.072;11.970;2023-10-19T02:21:13;8.65;;;6.30;;
67063;SDS011;58476;48.072;11.970;2023-10-19T02:23:39;7.78;;;5.68;;
67063;SDS011;58476;48.072;11.970;2023-10-19T02:26:05;7.90;;;6.30;;
67063;SDS011;58476;48.072;11.970;2023-10-19T02:28:30;9.70;;;5.88;;
67063;SDS011;58476;48.072;11.970;2023-10-19T02:30:56;7.90;;;5.68;;
67063;SDS011;58476;48.072;11.970;2023-10-19T02:33:21;9.07;;;5.78;;
67063;SDS011;58476;48.072;11.970;2023-10-19T02:35:47;7.97;;;5.75;;
67063;SDS011;58476;48.072;11.970;2023-10-19T02:38:12;9.40;;;5.85;;
67063;SDS011;58476;48.072;11.970;2023-10-19T02:40:37;9.75;;;6.35;;
67063;SDS011;58476;48.072;11.970;2023-10-19T02:43:03;8.90;;;6.20;;
67063;SDS011;58476;48.072;11.970;2023-10-19T02:45:28;7.85;;;5.90;;
67063;SDS011;58476;48.072;11.970;2023-10-19T02:47:53;8.52;;;6.20;;
67063;SDS011;58476;48.072;11.970;2023-10-19T02:50:19;9.82;;;6.30;;
67063;SDS011;58476;48.072;11.970;2023-10-19T02:52:44;9.20;;;6.03;;
67063;SDS011;58476;48.072;11.970;2023-10-19T02:55:09;10.43;;;6.20;;
67063;SDS011;58476;48.072;11.970;2023-10-19T02:57:38;8.82;;;5.90;;
67063;SDS011;58476;48.072;11.970;2023-10-19T03:00:06;7.13;;;5.22;;
67063;SDS011;58476;48.072;11.970;2023-10-19T03:02:32;9.00;;;5.82;;
67063;SDS011;58476;48.072;11.970;2023-10-19T03:04:57;9.48;;;5.80;;
67063;SDS011;58476;48.072;11.970;2023-10-19T03:07:23;8.48;;;6.00;;
67063;SDS011;58476;48.072;11.970;2023-10-19T03:09:48;7.90;;;5.75;;
67063;SDS011;58476;48.072;11.970;2023-10-19T03:12:13;8.20;;;5.90;;
67063;SDS011;58476;48.072;11.970;2023-10-19T03:14:39;9.05;;;6.05;;
67063;SDS011;58476;48.072;11.970;2023-10-19T03:17:04;9.50;;;6.43;;
67063;SDS011;58476;48.072;11.970;2023-10-19T03:19:30;8.05;;;6.10;;
67063;SDS011;58476;48.072;11.970;2023-10-19T03:21:55;8.57;;;5.93;;
67063;SDS011;58476;48.072;11.970;2023-10-19T03:24:21;7.78;;;5.90;;
67063;SDS011;58476;48.072;11.970;2023-10-19T03:26:46;8.65;;;6.15;;
67063;SDS011;58476;48.072;11.970;2023-10-19T03:29:11;8.55;;;6.20;;
67063;SDS011;58476;48.072;11.970;2023-10-19T03:31:37;7.47;;;5.95;;
67063;SDS011;58476;48.072;11.970;2023-10-19T03:34:02;9.10;;;5.78;;
67063;SDS011;58476;48.072;11.970;2023-10-19T03:36:27;8.82;;;5.97;;
67063;SDS011;58476;48.072;11.970;2023-10-19T03:38:53;10.73;;;6.30;;
67063;SDS011;58476;48.072;11.970;2023-10-19T03:41:19;8.05;;;5.65;;
67063;SDS011;58476;48.072;11.970;2023-10-19T03:43:45;8.70;;;5.93;;
67063;SDS011;58476;48.072;11.970;2023-10-19T03:46:11;7.50;;;5.60;;
67063;SDS011;58476;48.072;11.970;2023-10-19T03:48:36;8.25;;;5.35;;
67063;SDS011;58476;48.072;11.970;2023-10-19T03:51:02;7.07;;;5.47;;
67063;SDS011;58476;48.072;11.970;2023-10-19T03:53:28;7.10;;;5.30;;
67063;SDS011;58476;48.072;11.970;2023-10-19T03:55:53;7.00;;;5.28;;
67063;SDS011;58476;48.072;11.970;2023-10-19T03:58:18;7.55;;;5.50;;
67063;SDS011;58476;48.072;11.970;2023-10-19T04:00:44;8.15;;;6.03;;
67063;SDS011;58476;48.072;11.970;2023-10-19T04:03:09;7.15;;;5.30;;
67063;SDS011;58476;48.072;11.970;2023-10-19T04:05:35;7.90;;;5.78;;
67063;SDS011;58476;48.072;11.970;2023-10-19T04:08:00;8.52;;;6.00;;
67063;SDS011;58476;48.072;11.970;2023-10-19T04:10:25;9.15;;;5.60;;
67063;SDS011;58476;48.072;11.970;2023-10-19T04:12:50;9.25;;;6.03;;
67063;SDS011;58476;48.072;11.970;2023-10-19T04:15:16;8.18;;;5.30;;
67063;SDS011;58476;48.072;11.970;2023-10-19T04:17:41;11.02;;;5.55;;
67063;SDS011;58476;48.072;11.970;2023-10-19T04:20:11;15.38;;;6.90;;
67063;SDS011;58476;48.072;11.970;2023-10-19T04:22:37;10.05;;;5.88;;
67063;SDS011;58476;48.072;11.970;2023-10-19T04:25:03;10.68;;;5.68;;
67063;SDS011;58476;48.072;11.970;2023-10-19T04:27:28;13.57;;;5.65;;
67063;SDS011;58476;48.072;11.970;2023-10-19T04:29:54;15.07;;;6.25;;
67063;SDS011;58476;48.072;11.970;2023-10-19T04:32:19;12.45;;;6.30;;
67063;SDS011;58476;48.072;11.970;2023-10-19T04:34:44;12.95;;;5.95;;
67063;SDS011;58476;48.072;11.970;2023-10-19T04:37:09;14.38;;;5.60;;
67063;SDS011;58476;48.072;11.970;2023-10-19T04:39:35;11.88;;;5.75;;
67063;SDS011;58476;48.072;11.970;2023-10-19T04:42:00;14.98;;;5.97;;
67063;SDS011;58476;48.072;11.970;2023-10-19T04:44:25;11.38;;;6.45;;
67063;SDS011;58476;48.072;11.970;2023-10-19T04:46:51;14.05;;;6.20;;
67063;SDS011;58476;48.072;11.970;2023-10-19T04:49:16;12.73;;;6.07;;
67063;SDS011;58476;48.072;11.970;2023-10-19T04:51:42;8.43;;;5.40;;
67063;SDS011;58476;48.072;11.970;2023-10-19T04:54:07;11.85;;;6.15;;
67063;SDS011;58476;48.072;11.970;2023-10-19T04:56:32;10.70;;;5.90;;
67063;SDS011;58476;48.072;11.970;2023-10-19T04:58:58;13.23;;;6.35;;
67063;SDS011;58476;48.072;11.970;2023-10-19T05:01:23;17.00;;;5.55;;
67063;SDS011;58476;48.072;11.970;2023-10-19T05:03:48;14.40;;;6.18;;
67063;SDS011;58476;48.072;11.970;2023-10-19T05:06:14;15.00;;;6.57;;
67063;SDS011;58476;48.072;11.970;2023-10-19T05:08:39;10.30;;;6.18;;
67063;SDS011;58476;48.072;11.970;2023-10-19T05:11:04;12.07;;;5.88;;
67063;SDS011;58476;48.072;11.970;2023-10-19T05:13:30;14.50;;;5.70;;
67063;SDS011;58476;48.072;11.970;2023-10-19T05:15:56;15.80;;;6.18;;
67063;SDS011;58476;48.072;11.970;2023-10-19T05:18:22;19.88;;;7.15;;
67063;SDS011;58476;48.072;11.970;2023-10-19T05:20:48;20.40;;;7.90;;
67063;SDS011;58476;48.072;11.970;2023-10-19T05:23:13;10.13;;;6.55;;
67063;SDS011;58476;48.072;11.970;2023-10-19T05:25:39;9.68;;;6.13;;
67063;SDS011;58476;48.072;11.970;2023-10-19T05:28:05;21.77;;;6.30;;
67063;SDS011;58476;48.072;11.970;2023-10-19T05:30:31;19.63;;;8.00;;
67063;SDS011;58476;48.072;11.970;2023-10-19T05:32:57;12.13;;;6.03;;
67063;SDS011;58476;48.072;11.970;2023-10-19T05:35:24;17.40;;;6.47;;
67063;SDS011;58476;48.072;11.970;2023-10-19T05:37:50;15.85;;;6.32;;
67063;SDS011;58476;48.072;11.970;2023-10-19T05:40:15;10.00;;;6.07;;
67063;SDS011;58476;48.072;11.970;2023-10-19T05:42:41;11.93;;;6.18;;
67063;SDS011;58476;48.072;11.970;2023-10-19T05:45:06;11.50;;;6.25;;
67063;SDS011;58476;48.072;11.970;2023-10-19T05:47:32;11.48;;;5.68;;
67063;SDS011;58476;48.072;11.970;2023-10-19T05:49:57;10.15;;;5.82;;
67063;SDS011;58476;48.072;11.970;2023-10-19T05:52:23;14.63;;;6.60;;
67063;SDS011;58476;48.072;11.970;2023-10-19T05:54:48;12.05;;;5.82;;
67063;SDS011;58476;48.072;11.970;2023-10-19T05:57:13;8.93;;;5.68;;
67063;SDS011;58476;48.072;11.970;2023-10-19T05:59:39;10.82;;;5.53;;
67063;SDS011;58476;48.072;11.970;2023-10-19T06:02:04;13.77;;;6.35;;
67063;SDS011;58476;48.072;11.970;2023-10-19T06:04:29;9.10;;;5.75;;
67063;SDS011;58476;48.072;11.970;2023-10-19T06:06:55;11.93;;;6.22;;
67063;SDS011;58476;48.072;11.970;2023-10-19T06:09:20;11.45;;;5.63;;
67063;SDS011;58476;48.072;11.970;2023-10-19T06:11:46;12.10;;;6.25;;
67063;SDS011;58476;48.072;11.970;2023-10-19T06:14:11;10.15;;;5.80;;
67063;SDS011;58476;48.072;11.970;2023-10-19T06:16:36;10.88;;;6.38;;
67063;SDS011;58476;48.072;11.970;2023-10-19T06:19:02;9.38;;;6.07;;
67063;SDS011;58476;48.072;11.970;2023-10-19T06:21:28;11.23;;;5.65;;
67063;SDS011;58476;48.072;11.970;2023-10-19T06:23:53;8.05;;;5.85;;
67063;SDS011;58476;48.072;11.970;2023-10-19T06:26:18;9.52;;;5.85;;
67063;SDS011;58476;48.072;11.970;2023-10-19T06:28:44;10.75;;;5.40;;
67063;SDS011;58476;48.072;11.970;2023-10-19T06:31:09;11.45;;;5.43;;
67063;SDS011;58476;48.072;11.970;2023-10-19T06:33:35;10.52;;;5.72;;
67063;SDS011;58476;48.072;11.970;2023-10-19T06:36:00;8.38;;;5.30;;
67063;SDS011;58476;48.072;11.970;2023-10-19T06:38:26;8.32;;;5.70;;
67063;SDS011;58476;48.072;11.970;2023-10-19T06:40:51;10.35;;;5.93;;
67063;SDS011;58476;48.072;11.970;2023-10-19T06:43:16;14.27;;;5.65;;
67063;SDS011;58476;48.072;11.970;2023-10-19T06:45:43;12.68;;;5.90;;
67063;SDS011;58476;48.072;11.970;2023-10-19T06:48:09;12.15;;;6.30;;
67063;SDS011;58476;48.072;11.970;2023-10-19T06:50:34;10.38;;;5.85;;
67063;SDS011;58476;48.072;11.970;2023-10-19T06:53:00;15.15;;;5.55;;
67063;SDS011;58476;48.072;11.970;2023-10-19T06:55:25;13.82;;;5.50;;
67063;SDS011;58476;48.072;11.970;2023-10-19T06:57:51;16.45;;;5.75;;
67063;SDS011;58476;48.072;11.970;2023-10-19T07:00:18;15.00;;;6.07;;
67063;SDS011;58476;48.072;11.970;2023-10-19T07:02:48;9.35;;;5.68;;
67063;SDS011;58476;48.072;11.970;2023-10-19T07:05:16;11.70;;;5.70;;
67063;SDS011;58476;48.072;11.970;2023-10-19T07:07:42;11.85;;;5.20;;
67063;SDS011;58476;48.072;11.970;2023-10-19T07:10:09;16.75;;;5.43;;
67063;SDS011;58476;48.072;11.970;2023-10-19T07:12:38;14.68;;;5.75;;
67063;SDS011;58476;48.072;11.970;2023-10-19T07:15:05;19.48;;;6.05;;
67063;SDS011;58476;48.072;11.970;2023-10-19T07:17:31;12.45;;;5.70;;
67063;SDS011;58476;48.072;11.970;2023-10-19T07:19:56;8.65;;;5.20;;
67063;SDS011;58476;48.072;11.970;2023-10-19T07:22:22;13.13;;;6.47;;
67063;SDS011;58476;48.072;11.970;2023-10-19T07:24:47;12.23;;;5.38;;
67063;SDS011;58476;48.072;11.970;2023-10-19T07:27:12;11.00;;;5.45;;
67063;SDS011;58476;48.072;11.970;2023-10-19T07:29:38;13.77;;;5.35;;
67063;SDS011;58476;48.072;11.970;2023-10-19T07:32:03;11.13;;;5.72;;
67063;SDS011;58476;48.072;11.970;2023-10-19T07:34:31;13.65;;;5.50;;
67063;SDS011;58476;48.072;11.970;2023-10-19T07:36:57;15.07;;;5.82;;
67063;SDS011;58476;48.072;11.970;2023-10-19T07:39:22;10.77;;;5.95;;
67063;SDS011;58476;48.072;11.970;2023-10-19T07:41:47;8.10;;;5.82;;
67063;SDS011;58476;48.072;11.970;2023-10-19T07:44:12;16.83;;;5.90;;
67063;SDS011;58476;48.072;11.970;2023-10-19T07:46:38;10.10;;;5.82;;
67063;SDS011;58476;48.072;11.970;2023-10-19T07:49:03;11.52;;;5.80;;
67063;SDS011;58476;48.072;11.970;2023-10-19T07:51:29;7.85;;;5.32;;
67063;SDS011;58476;48.072;11.970;2023-10-19T07:53:54;11.50;;;5.50;;
67063;SDS011;58476;48.072;11.970;2023-10-19T07:56:19;14.80;;;6.55;;
67063;SDS011;58476;48.072;11.970;2023-10-19T07:58:45;9.95;;;5.30;;
67063;SDS011;58476;48.072;11.970;2023-10-19T08:01:10;14.15;;;5.25;;
67063;SDS011;58476;48.072;11.970;2023-10-19T08:03:35;15.50;;;5.32;;
67063;SDS011;58476;48.072;11.970;2023-10-19T08:06:01;15.23;;;5.60;;
67063;SDS011;58476;48.072;11.970;2023-10-19T08:08:26;15.07;;;5.63;;
67063;SDS011;58476;48.072;11.970;2023-10-19T08:10:51;13.80;;;5.38;;
67063;SDS011;58476;48.072;11.970;2023-10-19T08:13:17;11.57;;;5.50;;
67063;SDS011;58476;48.072;11.970;2023-10-19T08:15:42;12.85;;;5.45;;
67063;SDS011;58476;48.072;11.970;2023-10-19T08:18:07;9.70;;;5.07;;
67063;SDS011;58476;48.072;11.970;2023-10-19T08:20:32;11.18;;;4.93;;
67063;SDS011;58476;48.072;11.970;2023-10-19T08:22:58;8.75;;;4.93;;
67063;SDS011;58476;48.072;11.970;2023-10-19T08:25:25;18.33;;;5.72;;
67063;SDS011;58476;48.072;11.970;2023-10-19T08:27:51;9.82;;;5.00;;
67063;SDS011;58476;48.072;11.970;2023-10-19T08:30:19;9.20;;;5.25;;
67063;SDS011;58476;48.072;11.970;2023-10-19T08:32:46;9.38;;;4.88;;
67063;SDS011;58476;48.072;11.970;2023-10-19T08:35:11;11.50;;;4.95;;
67063;SDS011;58476;48.072;11.970;2023-10-19T08:37:39;9.30;;;5.18;;
67063;SDS011;58476;48.072;11.970;2023-10-19T08:40:06;8.27;;;4.82;;
67063;SDS011;58476;48.072;11.970;2023-10-19T08:42:32;8.73;;;5.50;;
67063;SDS011;58476;48.072;11.970;2023-10-19T08:44:57;12.77;;;4.68;;
67063;SDS011;58476;48.072;11.970;2023-10-19T08:47:23;6.80;;;4.72;;
67063;SDS011;58476;48.072;11.970;2023-10-19T08:49:48;7.68;;;4.50;;
67063;SDS011;58476;48.072;11.970;2023-10-19T08:52:13;13.23;;;4.78;;
67063;SDS011;58476;48.072;11.970;2023-10-19T08:54:40;14.13;;;4.60;;
67063;SDS011;58476;48.072;11.970;2023-10-19T08:57:05;18.15;;;5.22;;
67063;SDS011;58476;48.072;11.970;2023-10-19T08:59:31;12.35;;;4.72;;
67063;SDS011;58476;48.072;11.970;2023-10-19T09:02:02;9.32;;;4.93;;
67063;SDS011;58476;48.072;11.970;2023-10-19T09:04:28;9.52;;;4.95;;
67063;SDS011;58476;48.072;11.970;2023-10-19T09:06:54;13.27;;;5.22;;
67063;SDS011;58476;48.072;11.970;2023-10-19T09:09:19;13.90;;;4.30;;
67063;SDS011;58476;48.072;11.970;2023-10-19T09:11:45;10.75;;;4.50;;
67063;SDS011;58476;48.072;11.970;2023-10-19T09:14:11;12.77;;;4.45;;
67063;SDS011;58476;48.072;11.970;2023-10-19T09:16:37;11.00;;;4.80;;
67063;SDS011;58476;48.072;11.970;2023-10-19T09:19:02;16.35;;;5.47;;
67063;SDS011;58476;48.072;11.970;2023-10-19T09:21:28;11.27;;;4.72;;
67063;SDS011;58476;48.072;11.970;2023-10-19T09:23:54;11.77;;;4.30;;
67063;SDS011;58476;48.072;11.970;2023-10-19T09:26:20;14.93;;;4.70;;
67063;SDS011;58476;48.072;11.970;2023-10-19T09:28:50;16.83;;;5.05;;
67063;SDS011;58476;48.072;11.970;2023-10-19T09:31:17;11.77;;;4.72;;
67063;SDS011;58476;48.072;11.970;2023-10-19T09:33:43;10.10;;;5.85;;
67063;SDS011;58476;48.072;11.970;2023-10-19T09:36:10;12.45;;;4.95;;
67063;SDS011;58476;48.072;11.970;2023-10-19T09:38:36;10.75;;;5.00;;
67063;SDS011;58476;48.072;11.970;2023-10-19T09:41:01;12.40;;;4.38;;
67063;SDS011;58476;48.072;11.970;2023-10-19T09:45:58;10.77;;;4.65;;
67063;SDS011;58476;48.072;11.970;2023-10-19T09:48:25;13.65;;;5.07;;
67063;SDS011;58476;48.072;11.970;2023-10-19T09:50:53;8.48;;;5.22;;
67063;SDS011;58476;48.072;11.970;2023-10-19T09:53:19;11.18;;;5.15;;
67063;SDS011;58476;48.072;11.970;2023-10-19T09:55:47;13.57;;;5.80;;
67063;SDS011;58476;48.072;11.970;2023-10-19T09:58:19;13.95;;;4.95;;
67063;SDS011;58476;48.072;11.970;2023-10-19T10:00:49;11.02;;;4.65;;
67063;SDS011;58476;48.072;11.970;2023-10-19T10:06:08;14.32;;;4.97;;
67063;SDS011;58476;48.072;11.970;2023-10-19T10:08:42;15.00;;;4.88;;
67063;SDS011;58476;48.072;11.970;2023-10-19T10:11:22;12.25;;;4.70;;
67063;SDS011;58476;48.072;11.970;2023-10-19T10:13:49;15.40;;;4.93;;
67063;SDS011;58476;48.072;11.970;2023-10-19T10:16:15;11.25;;;4.80;;
67063;SDS011;58476;48.072;11.970;2023-10-19T10:18:41;7.47;;;4.72;;
67063;SDS011;58476;48.072;11.970;2023-10-19T10:21:07;11.95;;;4.75;;
67063;SDS011;58476;48.072;11.970;2023-10-19T10:23:40;7.25;;;4.47;;
67063;SDS011;58476;48.072;11.970;2023-10-19T10:28:46;15.57;;;4.90;;
67063;SDS011;58476;48.072;11.970;2023-10-19T10:31:21;15.77;;;4.70;;
67063;SDS011;58476;48.072;11.970;2023-10-19T10:36:14;8.32;;;4.53;;
67063;SDS011;58476;48.072;11.970;2023-10-19T10:38:40;7.70;;;4.40;;
67063;SDS011;58476;48.072;11.970;2023-10-19T10:41:06;11.35;;;4.80;;
67063;SDS011;58476;48.072;11.970;2023-10-19T10:43:32;11.40;;;4.80;;
67063;SDS011;58476;48.072;11.970;2023-10-19T10:46:06;11.07;;;4.80;;
67063;SDS011;58476;48.072;11.970;2023-10-19T10:48:31;11.43;;;4.63;;
67063;SDS011;58476;48.072;11.970;2023-10-19T10:50:57;10.90;;;4.70;;
67063;SDS011;58476;48.072;11.970;2023-10-19T10:53:23;9.70;;;4.40;;
67063;SDS011;58476;48.072;11.970;2023-10-19T10:55:48;8.30;;;4.50;;
67063;SDS011;58476;48.072;11.970;2023-10-19T10:58:17;9.05;;;4.50;;
67063;SDS011;58476;48.072;11.970;2023-10-19T11:00:43;10.15;;;4.35;;
67063;SDS011;58476;48.072;11.970;2023-10-19T11:03:09;12.77;;;4.90;;
67063;SDS011;58476;48.072;11.970;2023-10-19T11:05:35;9.85;;;4.55;;
67063;SDS011;58476;48.072;11.970;2023-10-19T11:08:05;14.50;;;4.60;;
67063;SDS011;58476;48.072;11.970;2023-10-19T11:10:38;14.25;;;6.68;;
67063;SDS011;58476;48.072;11.970;2023-10-19T11:13:08;17.98;;;4.93;;
67063;SDS011;58476;48.072;11.970;2023-10-19T11:15:35;15.00;;;4.80;;
67063;SDS011;58476;48.072;11.970;2023-10-19T11:18:27;11.55;;;4.65;;
67063;SDS011;58476;48.072;11.970;2023-10-19T11:21:05;8.07;;;4.63;;
67063;SDS011;58476;48.072;11.970;2023-10-19T11:23:42;8.10;;;4.10;;
67063;SDS011;58476;48.072;11.970;2023-10-19T11:26:11;7.63;;;4.20;;
67063;SDS011;58476;48.072;11.970;2023-10-19T11:28:39;11.35;;;4.30;;
67063;SDS011;58476;48.072;11.970;2023-10-19T11:31:12;9.32;;;4.00;;
67063;SDS011;58476;48.072;11.970;2023-10-19T11:33:44;7.55;;;4.28;;
67063;SDS011;58476;48.072;11.970;2023-10-19T11:36:11;8.55;;;4.07;;
67063;SDS011;58476;48.072;11.970;2023-10-19T11:38:47;13.45;;;4.40;;
67063;SDS011;58476;48.072;11.970;2023-10-19T11:41:13;8.75;;;4.20;;
67063;SDS011;58476;48.072;11.970;2023-10-19T11:43:41;12.32;;;4.45;;
67063;SDS011;58476;48.072;11.970;2023-10-19T11:46:08;6.82;;;4.20;;
67063;SDS011;58476;48.072;11.970;2023-10-19T11:48:34;8.18;;;4.00;;
67063;SDS011;58476;48.072;11.970;2023-10-19T11:51:00;9.73;;;3.85;;
67063;SDS011;58476;48.072;11.970;2023-10-19T11:53:28;9.55;;;4.10;;
67063;SDS011;58476;48.072;11.970;2023-10-19T11:55:58;8.90;;;4.20;;
67063;SDS011;58476;48.072;11.970;2023-10-19T11:58:24;9.55;;;3.85;;
67063;SDS011;58476;48.072;11.970;2023-10-19T12:00:49;9.73;;;4.28;;
67063;SDS011;58476;48.072;11.970;2023-10-19T12:03:14;7.65;;;3.75;;
67063;SDS011;58476;48.072;11.970;2023-10-19T12:05:40;8.75;;;4.35;;
67063;SDS011;58476;48.072;11.970;2023-10-19T12:08:05;9.60;;;4.13;;
67063;SDS011;58476;48.072;11.970;2023-10-19T12:10:30;16.30;;;6.47;;
67063;SDS011;58476;48.072;11.970;2023-10-19T12:12:56;17.63;;;4.70;;
67063;SDS011;58476;48.072;11.970;2023-10-19T12:15:21;9.75;;;4.50;;
67063;SDS011;58476;48.072;11.970;2023-10-19T12:17:46;6.97;;;3.92;;
67063;SDS011;58476;48.072;11.970;2023-10-19T12:20:12;7.38;;;4.00;;
67063;SDS011;58476;48.072;11.970;2023-10-19T12:22:37;11.90;;;4.38;;
67063;SDS011;58476;48.072;11.970;2023-10-19T12:25:04;16.63;;;4.22;;
67063;SDS011;58476;48.072;11.970;2023-10-19T12:27:30;8.25;;;3.92;;
67063;SDS011;58476;48.072;11.970;2023-10-19T12:29:55;11.75;;;4.40;;
67063;SDS011;58476;48.072;11.970;2023-10-19T12:32:21;12.73;;;4.10;;
67063;SDS011;58476;48.072;11.970;2023-10-19T12:34:49;10.40;;;3.72;;
67063;SDS011;58476;48.072;11.970;2023-10-19T12:37:14;12.38;;;3.53;;
67063;SDS011;58476;48.072;11.970;2023-10-19T12:39:39;8.38;;;3.97;;
67063;SDS011;58476;48.072;11.970;2023-10-19T12:42:05;13.40;;;3.47;;
67063;SDS011;58476;48.072;11.970;2023-10-19T12:44:30;9.25;;;4.85;;
67063;SDS011;58476;48.072;11.970;2023-10-19T12:46:55;8.48;;;3.58;;
67063;SDS011;58476;48.072;11.970;2023-10-19T12:49:21;7.13;;;3.70;;
67063;SDS011;58476;48.072;11.970;2023-10-19T12:51:46;6.47;;;3.08;;
67063;SDS011;58476;48.072;11.970;2023-10-19T12:54:11;5.38;;;3.40;;
67063;SDS011;58476;48.072;11.970;2023-10-19T12:56:37;4.93;;;3.30;;
67063;SDS011;58476;48.072;11.970;2023-10-19T12:59:02;8.75;;;3.60;;
67063;SDS011;58476;48.072;11.970;2023-10-19T13:01:27;6.50;;;3.17;;
67063;SDS011;58476;48.072;11.970;2023-10-19T13:03:53;10.75;;;3.28;;
67063;SDS011;58476;48.072;11.970;2023-10-19T13:06:18;7.97;;;3.45;;
67063;SDS011;58476;48.072;11.970;2023-10-19T13:08:44;5.80;;;3.20;;
67063;SDS011;58476;48.072;11.970;2023-10-19T13:11:09;7.43;;;3.28;;
67063;SDS011;58476;48.072;11.970;2023-10-19T13:13:35;6.47;;;3.30;;
67063;SDS011;58476;48.072;11.970;2023-10-19T13:16:00;8.25;;;3.45;;
67063;SDS011;58476;48.072;11.970;2023-10-19T13:18:25;9.35;;;3.35;;
67063;SDS011;58476;48.072;11.970;2023-10-19T13:20:51;7.13;;;3.33;;
67063;SDS011;58476;48.072;11.970;2023-10-19T13:23:16;8.15;;;3.40;;
67063;SDS011;58476;48.072;11.970;2023-10-19T13:25:42;6.78;;;3.35;;
67063;SDS011;58476;48.072;11.970;2023-10-19T13:28:11;6.10;;;3.15;;
67063;SDS011;58476;48.072;11.970;2023-10-19T13:30:47;10.07;;;3.63;;
67063;SDS011;58476;48.072;11.970;2023-10-19T13:33:14;7.57;;;3.00;;
67063;SDS011;58476;48.072;11.970;2023-10-19T13:35:40;8.48;;;3.50;;
67063;SDS011;58476;48.072;11.970;2023-10-19T13:38:07;13.23;;;3.40;;
67063;SDS011;58476;48.072;11.970;2023-10-19T13:40:40;7.18;;;3.25;;
67063;SDS011;58476;48.072;11.970;2023-10-19T13:43:06;6.80;;;3.45;;
67063;SDS011;58476;48.072;11.970;2023-10-19T13:45:33;10.15;;;3.40;;
67063;SDS011;58476;48.072;11.970;2023-10-19T13:48:00;9.23;;;3.53;;
67063;SDS011;58476;48.072;11.970;2023-10-19T13:50:29;4.73;;;3.13;;
67063;SDS011;58476;48.072;11.970;2023-10-19T13:52:55;6.72;;;3.40;;
67063;SDS011;58476;48.072;11.970;2023-10-19T13:55:21;5.20;;;3.30;;
67063;SDS011;58476;48.072;11.970;2023-10-19T13:57:47;6.20;;;3.35;;
67063;SDS011;58476;48.072;11.970;2023-10-19T14:00:12;4.28;;;3.00;;
67063;SDS011;58476;48.072;11.970;2023-10-19T14:02:39;6.15;;;3.42;;
67063;SDS011;58476;48.072;11.970;2023-10-19T14:05:04;5.38;;;3.25;;
67063;SDS011;58476;48.072;11.970;2023-10-19T14:07:29;4.97;;;3.00;;
67063;SDS011;58476;48.072;11.970;2023-10-19T14:09:55;5.47;;;3.05;;
67063;SDS011;58476;48.072;11.970;2023-10-19T14:12:20;11.00;;;3.53;;
67063;SDS011;58476;48.072;11.970;2023-10-19T14:14:45;6.25;;;3.05;;
67063;SDS011;58476;48.072;11.970;2023-10-19T14:17:11;8.02;;;3.58;;
67063;SDS011;58476;48.072;11.970;2023-10-19T14:19:36;5.82;;;3.30;;
67063;SDS011;58476;48.072;11.970;2023-10-19T14:22:01;7.82;;;3.10;;
67063;SDS011;58476;48.072;11.970;2023-10-19T14:24:27;8.50;;;3.38;;
67063;SDS011;58476;48.072;11.970;2023-10-19T14:26:52;7.45;;;3.03;;
67063;SDS011;58476;48.072;11.970;2023-10-19T14:29:17;7.85;;;3.05;;
67063;SDS011;58476;48.072;11.970;2023-10-19T14:31:43;5.25;;;3.35;;
67063;SDS011;58476;48.072;11.970;2023-10-19T14:34:08;4.72;;;2.97;;